createdAt,value
2022-08-10T00:00:59.610Z,100.00
2022-08-10T00:03:29.328Z,100.00
2022-08-10T00:06:00.458Z,100.00
2022-08-10T00:08:29.981Z,100.00
2022-08-10T00:10:59.912Z,100.00
2022-08-10T00:13:31.554Z,100.00
2022-08-10T00:16:01.231Z,100.00
2022-08-10T00:18:35.197Z,100.00
2022-08-10T00:21:10.040Z,100.00
2022-08-10T00:23:40.392Z,100.00
2022-08-10T00:26:10.004Z,100.00
2022-08-10T00:28:39.974Z,100.00
2022-08-10T00:31:09.448Z,100.00
2022-08-10T00:33:38.929Z,100.00
2022-08-10T00:36:10.416Z,100.00
2022-08-10T00:38:39.910Z,100.00
2022-08-10T00:41:10.525Z,100.00
2022-08-10T00:43:40.033Z,100.00
2022-08-10T00:46:09.540Z,100.00
2022-08-10T00:48:39.085Z,100.00
2022-08-10T00:51:10.243Z,100.00
2022-08-10T00:53:39.864Z,100.00
2022-08-10T00:57:09.993Z,100.00
2022-08-10T00:58:59.656Z,100.00
2022-08-10T01:02:08.793Z,100.00
2022-08-10T01:04:36.426Z,100.00
2022-08-10T01:07:30.241Z,100.00
2022-08-10T01:10:17.134Z,100.00
2022-08-10T01:12:56.141Z,100.00
2022-08-10T01:15:33.628Z,100.00
2022-08-10T01:18:11.183Z,100.00
2022-08-10T01:21:17.057Z,100.00
2022-08-10T01:24:15.232Z,100.00
2022-08-10T01:27:27.833Z,100.00
2022-08-10T01:30:05.623Z,100.00
2022-08-10T01:32:49.718Z,100.00
2022-08-10T01:35:30.244Z,100.00
2022-08-10T01:38:08.334Z,100.00
2022-08-10T01:40:47.928Z,100.00
2022-08-10T01:43:21.251Z,100.00
2022-08-10T01:45:58.985Z,100.00
2022-08-10T01:48:32.895Z,100.00
2022-08-10T01:51:13.692Z,100.00
2022-08-10T01:53:52.042Z,100.00
2022-08-10T01:56:25.841Z,100.00
2022-08-10T01:59:04.871Z,100.00
2022-08-10T02:01:43.969Z,100.00
2022-08-10T02:04:17.273Z,100.00
2022-08-10T02:06:52.667Z,100.00
2022-08-10T02:09:28.313Z,100.00
2022-08-10T02:12:08.559Z,100.00
2022-08-10T02:14:49.259Z,100.00
2022-08-10T02:17:59.748Z,100.00
2022-08-10T02:20:22.435Z,100.00
2022-08-10T02:22:57.889Z,100.00
2022-08-10T02:25:41.475Z,100.00
2022-08-10T02:28:29.396Z,100.00
2022-08-10T02:31:06.591Z,100.00
2022-08-10T02:33:56.651Z,100.00
2022-08-10T02:36:32.748Z,100.00
2022-08-10T02:39:07.008Z,100.00
2022-08-10T02:45:01.596Z,100.00
2022-08-10T02:45:23.854Z,100.00
2022-08-10T02:47:55.421Z,100.00
2022-08-10T02:50:30.812Z,100.00
2022-08-10T02:53:07.189Z,100.00
2022-08-10T02:55:46.580Z,100.00
2022-08-10T02:58:27.493Z,100.00
2022-08-10T03:01:01.396Z,100.00
2022-08-10T03:03:46.805Z,100.00
2022-08-10T03:06:27.729Z,100.00
2022-08-10T03:08:58.393Z,100.00
2022-08-10T03:12:34.926Z,100.00
2022-08-10T03:14:24.942Z,100.00
2022-08-10T03:16:57.646Z,100.00
2022-08-10T03:20:34.706Z,100.00
2022-08-10T03:22:20.994Z,100.00
2022-08-10T03:24:51.459Z,100.00
2022-08-10T03:27:21.649Z,100.00
2022-08-10T03:30:31.706Z,100.00
2022-08-10T03:32:44.110Z,100.00
2022-08-10T03:35:14.761Z,100.00
2022-08-10T03:37:45.697Z,100.00
2022-08-10T03:40:15.585Z,100.00
2022-08-10T03:42:48.286Z,100.00
2022-08-10T03:45:18.471Z,100.00
2022-08-10T03:47:50.144Z,100.00
2022-08-10T03:50:27.626Z,100.00
2022-08-10T03:53:25.186Z,100.00
2022-08-10T03:56:29.590Z,100.00
2022-08-10T03:58:52.661Z,100.00
2022-08-10T04:02:41.816Z,100.00
2022-08-10T04:04:16.543Z,100.00
2022-08-10T04:06:54.518Z,100.00
2022-08-10T04:09:56.150Z,100.00
2022-08-10T04:12:19.916Z,100.00
2022-08-10T04:14:52.485Z,100.00
2022-08-10T04:18:03.106Z,100.00
2022-08-10T04:20:21.412Z,100.00
2022-08-10T04:22:54.710Z,100.00
2022-08-10T04:25:27.618Z,100.00
2022-08-10T04:27:57.831Z,100.00
2022-08-10T04:30:29.389Z,100.00
2022-08-10T04:33:06.875Z,100.00
2022-08-10T04:35:36.796Z,100.00
2022-08-10T04:38:07.008Z,100.00
2022-08-10T04:40:38.922Z,100.00
2022-08-10T04:43:13.299Z,100.00
2022-08-10T04:45:49.283Z,100.00
2022-08-10T04:48:43.039Z,100.00
2022-08-10T04:51:18.930Z,100.00
2022-08-10T04:54:03.203Z,100.00
2022-08-10T04:56:40.225Z,100.00
2022-08-10T04:59:12.472Z,100.00
2022-08-10T05:02:29.067Z,100.00
2022-08-10T05:04:37.449Z,100.00
2022-08-10T05:07:10.933Z,100.00
2022-08-10T05:10:00.374Z,100.00
2022-08-10T05:12:35.612Z,100.00
2022-08-10T05:15:09.490Z,100.00
2022-08-10T05:17:43.530Z,100.00
2022-08-10T05:20:31.881Z,100.00
2022-08-10T05:23:01.375Z,100.00
2022-08-10T05:25:32.851Z,100.00
2022-08-10T05:28:08.412Z,100.00
2022-08-10T05:30:38.085Z,100.00
2022-08-10T05:33:08.989Z,100.00
2022-08-10T05:35:52.872Z,100.00
2022-08-10T05:38:29.395Z,100.00
2022-08-10T05:40:59.775Z,100.00
2022-08-10T05:43:30.747Z,100.00
2022-08-10T05:46:18.958Z,100.00
2022-08-10T05:48:59.729Z,100.00
2022-08-10T05:51:31.451Z,100.00
2022-08-10T05:54:06.149Z,100.00
2022-08-10T05:56:54.698Z,100.00
2022-08-10T06:00:29.592Z,100.00
2022-08-10T06:02:36.404Z,100.00
2022-08-10T06:05:10.262Z,100.00
2022-08-10T06:07:46.872Z,100.00
2022-08-10T06:10:28.541Z,100.00
2022-08-10T06:13:29.745Z,100.00
2022-08-10T06:16:09.424Z,100.00
2022-08-10T06:18:40.118Z,100.00
2022-08-10T06:21:10.536Z,100.00
2022-08-10T06:23:41.331Z,100.00
2022-08-10T06:26:14.895Z,100.00
2022-08-10T06:29:03.791Z,100.00
2022-08-10T06:31:48.434Z,100.00
2022-08-10T06:34:28.377Z,100.00
2022-08-10T06:37:03.982Z,100.00
2022-08-10T06:39:35.573Z,100.00
2022-08-10T06:42:18.475Z,100.00
2022-08-10T06:44:59.551Z,100.00
2022-08-10T06:47:40.765Z,100.00
2022-08-10T06:50:35.137Z,100.00
2022-08-10T06:53:13.469Z,100.00
2022-08-10T06:55:56.820Z,100.00
2022-08-10T06:58:35.277Z,100.00
2022-08-10T07:01:10.427Z,100.00
2022-08-10T07:03:48.204Z,100.00
2022-08-10T07:06:20.114Z,100.00
2022-08-10T07:08:52.344Z,100.00
2022-08-10T07:11:23.612Z,100.00
2022-08-10T07:14:14.437Z,100.00
2022-08-10T07:16:48.844Z,100.00
2022-08-10T07:19:22.512Z,100.00
2022-08-10T07:21:52.835Z,100.00
2022-08-10T07:24:28.603Z,100.00
2022-08-10T07:26:59.683Z,100.00
2022-08-10T07:29:53.821Z,100.00
2022-08-10T07:32:23.594Z,100.00
2022-08-10T07:34:57.388Z,100.00
2022-08-10T07:37:29.812Z,100.00
2022-08-10T07:40:03.411Z,100.00
2022-08-10T07:42:39.829Z,100.00
2022-08-10T07:45:13.200Z,100.00
2022-08-10T07:47:54.354Z,100.00
2022-08-10T07:50:28.433Z,100.00
2022-08-10T07:53:09.807Z,100.00
2022-08-10T07:56:04.215Z,100.00
2022-08-10T07:58:46.127Z,100.00
2022-08-10T08:01:18.974Z,100.00
2022-08-10T08:04:05.741Z,100.00
2022-08-10T08:06:43.167Z,100.00
2022-08-10T08:09:12.992Z,100.00
2022-08-10T08:11:45.308Z,100.00
2022-08-10T08:14:17.103Z,100.00
2022-08-10T08:16:51.815Z,100.00
2022-08-10T08:19:35.963Z,100.00
2022-08-10T08:24:30.564Z,100.00
2022-08-10T08:25:01.483Z,100.00
2022-08-10T08:27:32.594Z,100.00
2022-08-10T08:30:03.146Z,99.41
2022-08-10T08:32:37.825Z,95.08
2022-08-10T08:35:12.145Z,89.44
2022-08-10T08:38:30.178Z,92.25
2022-08-10T08:40:37.837Z,90.47
2022-08-10T08:43:50.553Z,83.25
2022-08-10T08:47:04.837Z,77.41
2022-08-10T08:50:33.839Z,81.48
2022-08-10T08:54:01.026Z,76.29
2022-08-10T08:56:29.852Z,75.56
2022-08-10T08:59:31.551Z,74.41
2022-08-10T09:02:19.120Z,71.64
2022-08-10T09:05:18.141Z,71.77
2022-08-10T09:08:31.488Z,70.75
2022-08-10T09:11:05.773Z,71.57
2022-08-10T09:13:45.690Z,69.26
2022-08-10T09:16:31.269Z,67.47
2022-08-10T09:19:19.629Z,66.67
2022-08-10T09:22:17.991Z,66.68
2022-08-10T09:25:15.861Z,65.99
2022-08-10T09:27:49.240Z,62.05
2022-08-10T09:30:34.763Z,62.02
2022-08-10T09:36:20.169Z,62.92
2022-08-10T09:36:33.109Z,61.40
2022-08-10T09:40:56.531Z,60.06
2022-08-10T09:42:40.254Z,58.96
2022-08-10T09:45:21.728Z,55.93
2022-08-10T09:48:16.617Z,56.07
2022-08-10T09:54:07.732Z,54.69
2022-08-10T09:57:03.002Z,53.36
2022-08-10T10:00:09.092Z,53.15
2022-08-10T10:03:02.765Z,52.38
2022-08-10T10:05:50.257Z,52.27
2022-08-10T10:08:33.790Z,50.36
2022-08-10T10:11:16.235Z,51.87
2022-08-10T10:14:04.395Z,51.40
2022-08-10T10:16:54.346Z,50.92
2022-08-10T10:19:50.257Z,50.84
2022-08-10T10:22:43.700Z,50.35
2022-08-10T10:25:50.118Z,50.22
2022-08-10T10:29:09.838Z,50.33
2022-08-10T10:31:33.130Z,47.51
2022-08-10T10:34:24.992Z,45.77
2022-08-10T10:36:56.237Z,46.73
2022-08-10T10:39:28.383Z,46.21
2022-08-10T10:42:35.065Z,46.04
2022-08-10T10:45:19.760Z,46.25
2022-08-10T10:48:17.863Z,46.11
2022-08-10T10:51:12.972Z,43.33
2022-08-10T10:53:55.008Z,44.33
2022-08-10T10:56:37.545Z,43.77
2022-08-10T10:59:53.674Z,44.20
2022-08-10T11:02:22.737Z,43.01
2022-08-10T11:05:09.930Z,41.60
2022-08-10T11:07:53.496Z,42.97
2022-08-10T11:10:34.761Z,43.53
2022-08-10T11:14:24.651Z,43.00
2022-08-10T11:16:29.130Z,41.83
2022-08-10T11:19:14.132Z,41.82
2022-08-10T11:22:02.245Z,41.75
2022-08-10T11:24:50.407Z,41.56
2022-08-10T11:27:34.718Z,41.90
2022-08-10T11:30:10.584Z,40.25
2022-08-10T11:32:58.418Z,38.80
2022-08-10T11:35:44.156Z,40.83
2022-08-10T11:38:31.330Z,40.37
2022-08-10T11:42:10.070Z,41.08
2022-08-10T11:44:17.404Z,41.42
